createdAt,value
2019-05-16T00:01:34.592Z,9.58
2019-05-16T00:06:39.147Z,9.55
2019-05-16T00:11:42.754Z,9.35
2019-05-16T00:16:48.315Z,9.34
2019-05-16T00:21:52.037Z,9.22
2019-05-16T00:26:55.426Z,9.21
2019-05-16T00:31:58.814Z,9.17
2019-05-16T00:37:02.545Z,9.10
2019-05-16T00:42:05.937Z,9.13
2019-05-16T00:47:09.329Z,9.21
2019-05-16T00:52:12.720Z,9.17
2019-05-16T00:57:18.861Z,9.16
2019-05-16T01:02:21.933Z,9.24
2019-05-16T01:07:27.595Z,9.30
2019-05-16T01:12:30.472Z,9.22
2019-05-16T01:17:33.863Z,9.30
2019-05-16T01:22:38.474Z,9.31
2019-05-16T01:27:42.153Z,9.23
2019-05-16T01:32:45.548Z,9.19
2019-05-16T01:37:49.008Z,9.22
2019-05-16T01:42:52.729Z,9.26
2019-05-16T01:47:56.115Z,9.25
2019-05-16T01:52:59.518Z,9.23
2019-05-16T01:58:02.907Z,9.13
2019-05-16T02:03:08.255Z,9.07
2019-05-16T02:08:11.505Z,8.98
2019-05-16T02:13:14.921Z,8.89
2019-05-16T02:18:18.703Z,8.85
2019-05-16T02:23:22.058Z,8.81
2019-05-16T02:28:30.940Z,8.74
2019-05-16T02:33:31.667Z,8.81
2019-05-16T02:38:35.377Z,8.90
2019-05-16T02:43:41.679Z,8.88
2019-05-16T02:48:44.063Z,8.96
2019-05-16T02:53:50.777Z,9.05
2019-05-16T02:58:52.573Z,9.12
2019-05-16T03:03:56.036Z,9.15
2019-05-16T03:09:04.775Z,9.07
2019-05-16T03:14:06.425Z,9.08
2019-05-16T03:19:12.723Z,9.12
2019-05-16T03:24:16.124Z,9.05
2019-05-16T03:29:21.825Z,8.99
2019-05-16T03:34:26.403Z,8.95
2019-05-16T03:39:31.420Z,8.90
2019-05-16T03:44:34.979Z,8.89
2019-05-16T03:49:38.367Z,8.90
2019-05-16T03:54:42.178Z,8.94
2019-05-16T03:59:45.668Z,8.96
2019-05-16T04:04:51.046Z,9.00
2019-05-16T04:09:54.177Z,9.04
2019-05-16T04:14:57.952Z,9.12
2019-05-16T04:20:02.369Z,9.18
2019-05-16T04:25:10.863Z,9.10
2019-05-16T04:30:12.888Z,8.99
2019-05-16T04:35:16.471Z,9.03
2019-05-16T04:40:22.008Z,9.06
2019-05-16T04:45:25.220Z,9.22
2019-05-16T04:50:31.124Z,9.32
2019-05-16T04:55:33.744Z,9.33
2019-05-16T05:00:37.145Z,9.27
2019-05-16T05:05:41.415Z,9.12
2019-05-16T05:10:44.814Z,9.19
2019-05-16T05:15:50.731Z,9.02
2019-05-16T05:20:53.406Z,8.98
2019-05-16T05:25:56.798Z,8.84
2019-05-16T05:31:00.202Z,8.83
2019-05-16T05:36:03.931Z,8.89
2019-05-16T05:41:07.313Z,8.99
2019-05-16T05:46:11.314Z,8.91
2019-05-16T05:51:14.746Z,9.03
2019-05-16T05:56:19.775Z,9.02
2019-05-16T06:01:23.218Z,9.00
2019-05-16T06:06:26.618Z,9.23
2019-05-16T06:11:30.717Z,9.20
2019-05-16T06:16:34.549Z,9.13
2019-05-16T06:21:38.050Z,9.21
2019-05-16T06:26:41.445Z,9.31
2019-05-16T06:31:44.848Z,9.29
2019-05-16T06:36:50.685Z,9.23
2019-05-16T06:41:53.387Z,9.37
2019-05-16T06:47:12.598Z,9.52
2019-05-16T06:52:02.017Z,9.72
2019-05-16T06:57:05.428Z,9.96
2019-05-16T07:02:12.269Z,10.07
2019-05-16T07:07:13.971Z,9.97
2019-05-16T07:12:20.130Z,9.98
2019-05-16T07:17:23.143Z,10.25
2019-05-16T07:22:26.863Z,10.20
2019-05-16T07:27:31.010Z,10.37
2019-05-16T07:32:34.826Z,10.54
2019-05-16T07:37:39.961Z,10.60
2019-05-16T07:42:43.509Z,10.79
2019-05-16T07:47:46.942Z,10.89
2019-05-16T07:52:51.178Z,10.87
2019-05-16T07:57:54.792Z,10.92
2019-05-16T08:03:00.031Z,10.97
2019-05-16T08:08:03.578Z,11.09
2019-05-16T08:13:07.087Z,11.31
2019-05-16T08:18:11.191Z,11.54
2019-05-16T08:23:14.607Z,11.67
2019-05-16T08:28:21.524Z,11.75
2019-05-16T08:33:23.170Z,11.83
2019-05-16T08:38:26.899Z,12.02
2019-05-16T08:43:31.634Z,12.03
2019-05-16T08:48:35.988Z,11.93
2019-05-16T08:53:43.289Z,11.99
2019-05-16T08:58:44.562Z,12.09
2019-05-16T09:03:51.689Z,12.23
2019-05-16T09:08:53.252Z,11.78
2019-05-16T09:13:57.363Z,11.61
2019-05-16T09:19:00.988Z,11.73
2019-05-16T09:24:06.201Z,11.91
2019-05-16T09:29:09.678Z,11.95
2019-05-16T09:34:13.083Z,12.28
2019-05-16T09:39:17.127Z,12.55
2019-05-16T09:44:20.450Z,12.52
2019-05-16T09:49:25.945Z,12.57
2019-05-16T09:54:28.966Z,12.64
2019-05-16T09:59:32.370Z,12.69
2019-05-16T10:04:36.836Z,12.87
2019-05-16T10:09:45.007Z,12.91
2019-05-16T10:14:46.988Z,12.81
2019-05-16T10:19:50.489Z,12.88
2019-05-16T10:24:53.884Z,12.94
2019-05-16T10:30:01.135Z,13.16
2019-05-16T10:35:02.566Z,13.02
2019-05-16T10:40:07.432Z,12.94
2019-05-16T10:45:11.583Z,13.03
2019-05-16T10:50:16.655Z,13.24
2019-05-16T10:55:20.476Z,13.52
2019-05-16T11:00:46.961Z,13.51
2019-05-16T11:05:33.360Z,13.94
2019-05-16T11:10:37.173Z,14.23
2019-05-16T11:15:39.903Z,13.38
2019-05-16T11:20:47.829Z,13.94
2019-05-16T11:25:48.456Z,13.66
2019-05-16T11:30:52.044Z,13.28
2019-05-16T11:35:55.499Z,13.73
2019-05-16T11:40:58.913Z,13.73
2019-05-16T11:46:02.597Z,13.44
2019-05-16T11:51:07.256Z,13.13
2019-05-16T11:56:10.806Z,12.88
2019-05-16T12:01:16.497Z,12.93
2019-05-16T12:06:19.962Z,12.95
2019-05-16T12:11:23.377Z,13.24
2019-05-16T12:16:27.547Z,13.87
2019-05-16T12:21:31.052Z,13.98
2019-05-16T12:26:37.102Z,14.29
2019-05-16T12:31:54.228Z,14.11
2019-05-16T12:36:47.241Z,13.37
2019-05-16T12:41:50.401Z,12.96
2019-05-16T12:46:53.829Z,12.96
2019-05-16T12:51:57.224Z,12.87
2019-05-16T12:57:00.935Z,12.96
2019-05-16T13:02:06.990Z,12.95
2019-05-16T13:07:09.877Z,12.77
2019-05-16T13:12:13.558Z,12.63
2019-05-16T13:17:16.969Z,12.48
2019-05-16T13:22:20.357Z,12.67
2019-05-16T13:27:23.754Z,12.60
2019-05-16T13:32:27.321Z,12.56
2019-05-16T13:37:30.722Z,12.44
2019-05-16T13:42:36.698Z,12.60
2019-05-16T13:47:39.260Z,12.71
2019-05-16T13:52:42.734Z,12.80
2019-05-16T13:57:46.219Z,12.88
2019-05-16T14:02:49.656Z,13.09
2019-05-16T14:07:53.357Z,13.19
2019-05-16T14:12:57.705Z,13.30
2019-05-16T14:18:01.490Z,13.41
2019-05-16T14:23:08.069Z,13.31
2019-05-16T14:28:10.038Z,13.34
2019-05-16T14:33:14.246Z,13.49
2019-05-16T14:38:17.872Z,13.25
2019-05-16T14:43:21.201Z,12.90
2019-05-16T14:48:27.573Z,12.37
2019-05-16T14:53:29.731Z,12.19
2019-05-16T14:58:33.133Z,12.27
2019-05-16T15:03:37.099Z,12.09
2019-05-16T15:08:40.625Z,12.25
2019-05-16T15:13:44.291Z,12.20
2019-05-16T15:18:47.761Z,12.24
2019-05-16T15:23:51.090Z,12.27
2019-05-16T15:28:54.547Z,12.15
2019-05-16T15:33:57.954Z,12.31
2019-05-16T15:39:01.384Z,12.19
2019-05-16T15:44:07.576Z,12.24
2019-05-16T15:49:10.577Z,12.30
2019-05-16T15:54:23.343Z,12.28
2019-05-16T15:59:27.179Z,12.20
2019-05-16T16:04:31.112Z,12.35
2019-05-16T16:09:37.612Z,12.39
2019-05-16T16:14:40.208Z,12.45
2019-05-16T16:19:43.600Z,12.40
2019-05-16T16:24:47.878Z,12.22
2019-05-16T16:29:51.390Z,12.08
2019-05-16T16:34:57.541Z,12.10
2019-05-16T16:40:01.067Z,12.12
2019-05-16T16:45:09.272Z,12.18
2019-05-16T16:50:13.004Z,12.21
2019-05-16T16:55:17.176Z,12.28
2019-05-16T17:00:21.091Z,12.28
2019-05-16T17:05:26.390Z,12.23
2019-05-16T17:10:29.635Z,12.26
2019-05-16T17:15:33.034Z,12.28
2019-05-16T17:20:37.131Z,12.27
2019-05-16T17:25:41.146Z,12.31
2019-05-16T17:30:46.865Z,12.29
2019-05-16T17:35:50.006Z,12.23
2019-05-16T17:40:53.395Z,12.24
2019-05-16T17:45:57.565Z,12.21
2019-05-16T17:51:01.198Z,12.26
2019-05-16T17:56:06.841Z,12.18
2019-05-16T18:01:10.294Z,12.19
2019-05-16T18:06:14.036Z,12.13
2019-05-16T18:11:17.900Z,12.03
2019-05-16T18:16:21.240Z,11.90
2019-05-16T18:21:24.643Z,11.87
2019-05-16T18:26:28.043Z,11.83
2019-05-16T18:31:32.236Z,11.85
2019-05-16T18:36:36.029Z,11.78
2019-05-16T18:41:39.426Z,11.72
2019-05-16T18:46:42.920Z,11.65
2019-05-16T18:51:46.652Z,11.77
2019-05-16T18:56:50.161Z,11.82
2019-05-16T19:01:53.566Z,11.79
2019-05-16T19:06:59.411Z,11.74
2019-05-16T19:12:02.081Z,11.78
2019-05-16T19:17:20.647Z,11.82
2019-05-16T19:22:10.620Z,11.82
2019-05-16T19:27:14.131Z,11.66
2019-05-16T19:32:17.540Z,11.53
2019-05-16T19:37:21.238Z,11.54
2019-05-16T19:42:26.657Z,11.54
2019-05-16T19:47:37.543Z,11.50
2019-05-16T19:52:36.721Z,11.45
2019-05-16T19:57:40.344Z,11.48
2019-05-16T20:02:43.744Z,11.47
2019-05-16T20:07:47.174Z,11.39
2019-05-16T20:12:50.577Z,11.30
2019-05-16T20:17:56.210Z,11.30
2019-05-16T20:22:59.138Z,11.29
2019-05-16T20:28:02.542Z,11.32
2019-05-16T20:33:09.193Z,11.26
2019-05-16T20:38:11.773Z,11.18
2019-05-16T20:43:16.829Z,11.12
2019-05-16T20:48:20.406Z,11.12
2019-05-16T20:53:24.069Z,11.13
2019-05-16T20:58:27.551Z,11.14
2019-05-16T21:03:31.044Z,11.10
2019-05-16T21:08:34.496Z,10.98
2019-05-16T21:13:37.941Z,10.95
2019-05-16T21:18:41.437Z,10.79
2019-05-16T21:23:46.990Z,10.66
2019-05-16T21:28:50.455Z,10.64
2019-05-16T21:33:53.851Z,10.57
2019-05-16T21:38:57.330Z,10.44
2019-05-16T21:44:00.737Z,10.36
2019-05-16T21:49:04.206Z,10.34
2019-05-16T21:54:07.615Z,10.28
2019-05-16T21:59:11.020Z,10.21
2019-05-16T22:04:14.767Z,10.10
2019-05-16T22:09:18.216Z,10.05
2019-05-16T22:14:24.665Z,9.93
2019-05-16T22:19:28.067Z,9.82
2019-05-16T22:24:31.460Z,9.74
2019-05-16T22:29:37.044Z,9.68
2019-05-16T22:34:39.978Z,9.65
2019-05-16T22:39:43.380Z,9.60
2019-05-16T22:44:46.770Z,9.39
2019-05-16T22:49:50.204Z,9.18
2019-05-16T22:54:53.597Z,9.15
2019-05-16T22:59:57.040Z,9.13
2019-05-16T23:05:00.390Z,8.98
2019-05-16T23:10:03.926Z,9.02
2019-05-16T23:15:07.613Z,9.03
2019-05-16T23:20:11.177Z,8.90
2019-05-16T23:25:16.925Z,8.62
2019-05-16T23:30:20.419Z,8.56
2019-05-16T23:35:26.708Z,8.56
2019-05-16T23:40:29.227Z,8.56
2019-05-16T23:45:32.702Z,8.51
2019-05-16T23:50:36.811Z,8.47
2019-05-16T23:55:40.631Z,8.34
